Time;durP1;ratioP1;P1;durP2;ratioP2;P2;SDS_P1;SDS_P2;PMS_P1;PMS_P2;Temp;Humidity;BMP_temperature;BMP_pressure;BME280_temperature;BME280_humidity;BME280_pressure;Samples;Min_cycle;Max_cycle;Signal;HPM_P1;HPM_P2
2024/01/11 00:00:45;;;;;;;90.97;28.95;;;-8.20;99.90;;;;;;4176968;28;20198;-78
2024/01/11 00:02:47;;;;;;;81.03;26.90;;;-8.30;99.90;;;;;;4175169;28;20650;-78
2024/01/11 00:04:50;;;;;;;82.88;26.65;;;-8.20;99.90;;;;;;4178486;28;20269;-78
2024/01/11 00:06:52;;;;;;;82.57;28.48;;;-8.20;99.90;;;;;;4184431;28;20218;-78
2024/01/11 00:08:54;;;;;;;85.82;28.73;;;-8.30;99.90;;;;;;4176713;28;20649;-78
2024/01/11 00:10:56;;;;;;;83.53;28.55;;;-8.30;99.90;;;;;;4176018;28;20208;-78
2024/01/11 00:13:00;;;;;;;79.38;27.52;;;-8.30;99.90;;;;;;4178698;28;20211;-77
2024/01/11 00:15:02;;;;;;;86.32;28.35;;;-8.30;99.90;;;;;;4177458;28;20644;-79
2024/01/11 00:17:04;;;;;;;84.13;27.48;;;-8.40;99.90;;;;;;4183654;28;20206;-78
2024/01/11 00:19:06;;;;;;;80.78;28.10;;;-8.40;99.90;;;;;;4181331;28;20295;-78
2024/01/11 00:21:07;;;;;;;82.22;28.17;;;-8.40;99.90;;;;;;4181614;28;20270;-78
2024/01/11 00:23:09;;;;;;;85.95;28.08;;;-8.50;99.90;;;;;;4185641;28;20205;-78
2024/01/11 00:25:11;;;;;;;87.05;29.42;;;-8.50;99.90;;;;;;4190659;28;20265;-77
2024/01/11 00:27:12;;;;;;;80.13;27.48;;;-8.50;99.90;;;;;;4185638;28;20203;-79
2024/01/11 00:29:15;;;;;;;91.27;27.90;;;-8.50;99.90;;;;;;4188359;28;20206;-78
2024/01/11 00:31:18;;;;;;;90.65;29.88;;;-8.50;99.90;;;;;;4188726;28;20253;-78
2024/01/11 00:33:20;;;;;;;87.25;27.50;;;-8.50;99.90;;;;;;4184333;28;20254;-78
2024/01/11 00:35:21;;;;;;;84.70;27.23;;;-8.50;99.90;;;;;;4179569;28;20740;-78
2024/01/11 00:37:23;;;;;;;87.03;27.70;;;-8.60;99.90;;;;;;4180525;28;20207;-78
2024/01/11 00:39:25;;;;;;;98.90;29.92;;;-8.60;99.90;;;;;;4179141;28;20815;-78
2024/01/11 00:41:27;;;;;;;88.82;27.98;;;-8.60;99.90;;;;;;4173524;28;20207;-78
2024/01/11 00:43:29;;;;;;;87.70;28.35;;;-8.60;99.90;;;;;;4175430;28;20195;-78
2024/01/11 00:45:33;;;;;;;82.63;27.65;;;-8.60;99.90;;;;;;4175602;28;20278;-78
2024/01/11 00:47:34;;;;;;;85.38;27.48;;;-8.60;99.90;;;;;;4177357;28;20252;-78
2024/01/11 00:49:36;;;;;;;88.25;27.30;;;-8.60;99.90;;;;;;4173745;28;20659;-78
2024/01/11 00:51:37;;;;;;;88.32;29.00;;;-8.70;99.90;;;;;;4173424;28;20265;-77
2024/01/11 00:53:39;;;;;;;89.27;29.77;;;-8.70;99.90;;;;;;4177897;28;20650;-78
2024/01/11 00:55:40;;;;;;;78.57;26.92;;;-8.60;99.90;;;;;;4174803;28;20636;-78
2024/01/11 00:57:42;;;;;;;85.00;28.80;;;-8.70;99.90;;;;;;4171453;28;20203;-79
2024/01/11 00:59:44;;;;;;;87.75;27.85;;;-7.90;99.90;;;;;;4175216;28;20753;-77
2024/01/11 01:01:48;;;;;;;89.38;28.33;;;-8.70;99.90;;;;;;4174228;28;20691;-77
2024/01/11 01:03:50;;;;;;;92.82;27.67;;;-8.70;99.90;;;;;;4177084;28;20212;-77
2024/01/11 01:05:51;;;;;;;83.97;27.17;;;-8.60;99.90;;;;;;4170428;28;20265;-78
2024/01/11 01:07:53;;;;;;;82.27;28.63;;;-8.60;99.90;;;;;;4170962;28;20207;-79
2024/01/11 01:09:55;;;;;;;95.50;29.52;;;-8.60;99.90;;;;;;4174382;28;20499;-77
2024/01/11 01:11:56;;;;;;;80.22;26.73;;;-8.70;99.90;;;;;;4172632;28;20686;-78
2024/01/11 01:13:58;;;;;;;90.97;28.30;;;-8.70;99.90;;;;;;4172628;28;20209;-78
2024/01/11 01:16:00;;;;;;;83.75;28.85;;;-8.70;99.90;;;;;;4172514;28;21037;-77
2024/01/11 01:18:04;;;;;;;96.22;29.45;;;-8.80;99.90;;;;;;4179044;28;20264;-78
2024/01/11 01:20:07;;;;;;;79.63;27.27;;;-8.80;99.90;;;;;;4180692;28;20204;-78
2024/01/11 01:22:08;;;;;;;90.05;28.40;;;-8.80;99.90;;;;;;4179983;28;20587;-78
2024/01/11 01:24:10;;;;;;;83.87;27.33;;;-8.80;99.90;;;;;;4173995;28;20207;-77
2024/01/11 01:26:12;;;;;;;80.53;26.38;;;-8.80;99.90;;;;;;4170576;28;20246;-78
2024/01/11 01:28:14;;;;;;;82.90;26.73;;;-8.80;99.90;;;;;;4176972;28;20211;-78
2024/01/11 01:30:15;;;;;;;87.32;27.00;;;-8.80;99.90;;;;;;4186862;28;21683;-77
2024/01/11 01:32:17;;;;;;;88.60;29.17;;;-8.80;99.90;;;;;;4184543;28;20195;-77
2024/01/11 01:34:20;;;;;;;78.70;26.48;;;-8.80;99.90;;;;;;4173093;28;20265;-78
2024/01/11 01:36:23;;;;;;;88.15;27.95;;;-8.80;99.90;;;;;;4179174;28;20727;-78
2024/01/11 01:38:25;;;;;;;88.60;26.92;;;-8.90;99.90;;;;;;4162528;28;20215;-78
2024/01/11 01:40:25;;;;;;;84.72;26.90;;;-8.40;99.90;;;;;;4181441;28;20201;-77
2024/01/11 01:42:27;;;;;;;92.60;28.07;;;-9.30;99.90;;;;;;4180856;28;20199;-77
2024/01/11 01:44:30;;;;;;;85.25;26.70;;;-8.80;99.90;;;;;;4174876;28;20468;-77
2024/01/11 01:46:31;;;;;;;86.80;27.40;;;-8.80;99.90;;;;;;4178689;28;20595;-77
2024/01/11 01:48:34;;;;;;;91.57;27.48;;;-8.80;99.90;;;;;;4179150;28;20206;-78
2024/01/11 01:50:37;;;;;;;94.70;27.80;;;-8.80;99.90;;;;;;4175529;28;20625;-78
2024/01/11 01:52:43;;;;;;;94.70;27.67;;;-8.90;99.90;;;;;;4179946;28;20199;-79
2024/01/11 01:54:45;;;;;;;81.45;26.90;;;-8.90;99.90;;;;;;4180147;28;20766;-78
2024/01/11 01:56:48;;;;;;;87.32;26.63;;;-8.90;99.90;;;;;;4180127;28;20203;-78
2024/01/11 01:58:51;;;;;;;87.90;27.55;;;-9.00;99.90;;;;;;4173443;28;20214;-78
2024/01/11 02:00:54;;;;;;;80.25;26.75;;;-9.00;99.90;;;;;;4170389;28;20297;-78
2024/01/11 02:02:56;;;;;;;81.95;27.45;;;-9.00;99.90;;;;;;4156506;28;20220;-78
2024/01/11 02:04:59;;;;;;;76.63;25.23;;;-9.00;99.90;;;;;;4174751;28;20565;-78
2024/01/11 02:07:03;;;;;;;86.88;28.13;;;-9.00;99.90;;;;;;4177131;28;20211;-78
2024/01/11 02:09:08;;;;;;;93.90;27.35;;;-9.30;99.90;;;;;;4181054;28;20221;-78
2024/01/11 02:11:12;;;;;;;90.43;27.35;;;-9.00;99.90;;;;;;4185491;28;20681;-78
2024/01/11 02:13:14;;;;;;;83.47;25.10;;;-9.00;99.90;;;;;;4175823;28;20615;-78
2024/01/11 02:15:16;;;;;;;83.13;25.05;;;-9.00;99.90;;;;;;4176636;28;20234;-78
2024/01/11 02:17:17;;;;;;;76.88;25.98;;;-8.90;99.90;;;;;;4173759;28;20203;-78
2024/01/11 02:19:20;;;;;;;80.10;26.47;;;-9.10;99.90;;;;;;4162630;28;20705;-78
2024/01/11 02:21:25;;;;;;;90.18;27.77;;;-9.10;99.90;;;;;;4179601;28;20276;-78
2024/01/11 02:23:28;;;;;;;83.88;28.05;;;-9.10;99.90;;;;;;4180922;28;20203;-78
2024/01/11 02:25:32;;;;;;;86.07;27.83;;;-9.10;99.90;;;;;;4163505;28;20975;-78
2024/01/11 02:27:46;;;;;;;87.22;27.08;;;-9.20;99.90;;;;;;4174748;28;20207;-78
2024/01/11 02:29:47;;;;;;;85.07;27.05;;;-9.20;99.90;;;;;;4174968;28;20218;-78
2024/01/11 02:31:49;;;;;;;92.80;27.83;;;-9.20;99.90;;;;;;4181435;28;20204;-78
2024/01/11 02:33:52;;;;;;;92.47;27.98;;;-9.20;99.90;;;;;;4178259;28;20960;-78
2024/01/11 02:35:55;;;;;;;102.50;30.63;;;-9.20;99.90;;;;;;4178324;28;20230;-78
2024/01/11 02:37:57;;;;;;;86.55;27.67;;;-9.20;99.90;;;;;;4175478;28;20207;-78
2024/01/11 02:40:00;;;;;;;89.30;27.75;;;-9.20;99.90;;;;;;4184378;28;20210;-78
2024/01/11 02:42:02;;;;;;;95.40;27.10;;;-9.20;99.90;;;;;;4186889;28;20678;-78
2024/01/11 02:44:05;;;;;;;87.55;28.83;;;-9.30;99.90;;;;;;4188393;28;20677;-78
2024/01/11 02:46:06;;;;;;;92.57;29.77;;;-9.30;99.90;;;;;;4183677;28;20223;-78
2024/01/11 02:48:07;;;;;;;93.50;28.30;;;-9.20;99.90;;;;;;4178942;28;20269;-78
2024/01/11 02:50:11;;;;;;;96.93;28.77;;;-9.20;99.90;;;;;;4183155;28;20696;-78
2024/01/11 02:52:13;;;;;;;87.18;29.67;;;-8.30;99.90;;;;;;4183054;28;20206;-78
2024/01/11 02:54:15;;;;;;;92.30;27.50;;;-9.30;99.90;;;;;;4178065;28;20199;-78
2024/01/11 02:56:17;;;;;;;88.00;27.15;;;-9.20;99.90;;;;;;4186570;28;20218;-78
2024/01/11 02:58:20;;;;;;;95.75;28.63;;;-9.20;99.90;;;;;;4160081;28;20207;-78
2024/01/11 03:00:22;;;;;;;88.10;27.58;;;-9.20;99.90;;;;;;4180667;28;20207;-78
2024/01/11 03:02:24;;;;;;;83.22;28.10;;;-9.20;99.90;;;;;;4174818;28;20702;-78
2024/01/11 03:04:26;;;;;;;81.13;27.42;;;-9.20;99.90;;;;;;4175215;28;20207;-77
2024/01/11 03:06:28;;;;;;;89.82;28.00;;;-9.20;99.90;;;;;;4172051;28;20223;-78
2024/01/11 03:08:30;;;;;;;84.47;27.80;;;-9.20;99.90;;;;;;4170773;28;20215;-77
2024/01/11 03:10:32;;;;;;;85.78;27.75;;;-9.20;99.90;;;;;;4163312;28;20230;-78
2024/01/11 03:12:34;;;;;;;90.65;28.42;;;-9.20;99.90;;;;;;4179283;28;20585;-78
2024/01/11 03:14:37;;;;;;;85.90;28.35;;;-9.20;99.90;;;;;;4174399;28;20207;-78
2024/01/11 03:16:39;;;;;;;88.55;28.38;;;-9.20;99.90;;;;;;4173851;28;20226;-78
2024/01/11 03:18:41;;;;;;;88.65;27.83;;;-9.20;99.90;;;;;;4180970;28;20625;-78
2024/01/11 03:20:43;;;;;;;88.10;27.02;;;-9.20;99.90;;;;;;4180895;28;20863;-78
2024/01/11 03:22:48;;;;;;;89.28;29.30;;;-9.20;99.90;;;;;;4176396;28;20612;-78
2024/01/11 03:24:51;;;;;;;90.70;27.40;;;-9.20;99.90;;;;;;4168275;28;20207;-78
2024/01/11 03:26:53;;;;;;;91.82;29.00;;;-9.30;99.90;;;;;;4178303;28;20206;-79
2024/01/11 03:28:55;;;;;;;97.47;29.90;;;-9.30;99.90;;;;;;4174827;28;20623;-78
2024/01/11 03:30:58;;;;;;;92.97;28.13;;;-9.20;99.90;;;;;;4163036;28;20219;-78
2024/01/11 03:33:00;;;;;;;85.13;28.80;;;-9.20;99.90;;;;;;4174495;28;20657;-78
2024/01/11 03:35:02;;;;;;;77.40;26.80;;;-9.20;99.90;;;;;;4172849;28;20203;-78
2024/01/11 03:37:05;;;;;;;74.93;26.13;;;-9.20;99.90;;;;;;4172271;28;20687;-78
2024/01/11 03:39:07;;;;;;;89.15;27.45;;;-9.20;99.90;;;;;;4182681;28;20293;-78
2024/01/11 03:41:10;;;;;;;77.63;25.55;;;-9.30;99.90;;;;;;4160004;28;20215;-78
2024/01/11 03:43:12;;;;;;;80.85;26.88;;;-9.30;99.90;;;;;;4161290;28;20235;-78
2024/01/11 03:45:14;;;;;;;85.47;25.90;;;-9.40;99.90;;;;;;4172468;28;20226;-78
2024/01/11 03:47:17;;;;;;;91.65;27.23;;;-9.40;99.90;;;;;;4174824;28;20203;-78
2024/01/11 03:49:18;;;;;;;81.50;25.23;;;-9.40;99.90;;;;;;4178097;28;20213;-78
2024/01/11 03:51:20;;;;;;;89.00;28.40;;;-9.40;99.90;;;;;;4177052;28;20209;-77
2024/01/11 03:53:22;;;;;;;80.70;27.13;;;-9.40;99.90;;;;;;4179249;28;20218;-78
2024/01/11 03:55:24;;;;;;;90.68;26.83;;;-9.40;99.90;;;;;;4177437;28;20249;-78
2024/01/11 03:57:25;;;;;;;84.78;26.88;;;-9.40;99.90;;;;;;4174727;28;20210;-78
2024/01/11 03:59:27;;;;;;;83.07;27.92;;;-9.40;99.90;;;;;;4175960;28;20191;-78
2024/01/11 04:01:29;;;;;;;82.88;27.92;;;-9.10;99.90;;;;;;4168015;28;20230;-78
2024/01/11 04:03:32;;;;;;;84.20;27.08;;;-9.50;99.90;;;;;;4175120;28;20191;-77
2024/01/11 04:05:34;;;;;;;86.50;28.05;;;-9.50;99.90;;;;;;4174218;28;20241;-78
2024/01/11 04:07:35;;;;;;;85.50;27.45;;;-9.50;99.90;;;;;;4172750;28;20202;-78
2024/01/11 04:09:38;;;;;;;87.53;28.25;;;-9.50;99.90;;;;;;4179966;28;20769;-78
2024/01/11 04:11:40;;;;;;;80.70;26.10;;;-9.50;99.90;;;;;;4171279;28;20345;-78
2024/01/11 04:13:42;;;;;;;88.95;26.80;;;-9.50;99.90;;;;;;4177233;28;20207;-78
2024/01/11 04:15:44;;;;;;;88.68;26.23;;;-9.50;99.90;;;;;;4172025;28;20289;-78
2024/01/11 04:17:45;;;;;;;77.90;25.13;;;-9.50;99.90;;;;;;4179109;28;20278;-78
2024/01/11 04:19:49;;;;;;;90.90;27.90;;;-9.50;99.90;;;;;;4181742;28;20238;-78
2024/01/11 04:21:53;;;;;;;80.07;25.45;;;-9.50;99.90;;;;;;4173273;28;20633;-78
2024/01/11 04:23:56;;;;;;;87.07;26.98;;;-9.50;99.90;;;;;;4186033;28;20257;-78
2024/01/11 04:25:57;;;;;;;82.82;25.35;;;-9.50;99.90;;;;;;4178308;28;20224;-78
2024/01/11 04:27:59;;;;;;;79.85;26.83;;;-9.50;99.90;;;;;;4156299;28;20768;-79
2024/01/11 04:30:01;;;;;;;92.40;27.98;;;-9.50;99.90;;;;;;4171679;28;20211;-78
2024/01/11 04:32:05;;;;;;;79.40;26.00;;;-9.50;99.90;;;;;;4174746;28;20230;-78
2024/01/11 04:34:06;;;;;;;79.03;24.75;;;-9.50;99.90;;;;;;4182661;28;20205;-78
2024/01/11 04:36:09;;;;;;;84.37;26.93;;;-9.50;99.90;;;;;;4177767;28;20595;-78
2024/01/11 04:38:11;;;;;;;79.60;27.02;;;-9.50;99.90;;;;;;4180280;28;20446;-78
2024/01/11 04:40:13;;;;;;;89.05;28.88;;;-9.50;99.90;;;;;;4169468;28;20290;-78
2024/01/11 04:42:14;;;;;;;78.22;25.27;;;-9.50;99.90;;;;;;4168142;28;20613;-78
2024/01/11 04:44:16;;;;;;;84.40;26.73;;;-9.50;99.90;;;;;;4169409;28;20214;-78
2024/01/11 04:48:55;;;;;;;90.88;27.48;;;-9.40;99.90;;;;;;4131661;28;20214;-79
2024/01/11 04:50:57;;;;;;;93.45;27.30;;;-9.50;99.90;;;;;;4178213;28;20216;-79
2024/01/11 04:53:01;;;;;;;74.00;25.08;;;-9.40;99.90;;;;;;4176465;28;20271;-77
2024/01/11 04:55:03;;;;;;;78.80;26.05;;;-9.40;99.90;;;;;;4175058;28;20214;-79
2024/01/11 04:57:05;;;;;;;82.47;26.17;;;-9.10;99.90;;;;;;4174911;28;20227;-78
2024/01/11 04:59:07;;;;;;;79.90;26.88;;;-9.30;99.90;;;;;;4173431;28;20222;-78
2024/01/11 05:01:13;;;;;;;91.00;27.42;;;-9.30;99.90;;;;;;4177725;28;20209;-77
2024/01/11 05:03:15;;;;;;;100.75;29.75;;;-9.40;99.90;;;;;;4171654;28;20226;-80
2024/01/11 05:05:17;;;;;;;94.80;31.30;;;-9.40;99.90;;;;;;4175981;28;20764;-78
2024/01/11 05:07:19;;;;;;;84.25;27.55;;;-9.40;99.90;;;;;;4174874;28;20723;-79
2024/01/11 05:09:22;;;;;;;91.65;26.83;;;-9.40;99.90;;;;;;4172729;28;20687;-78
2024/01/11 05:11:25;;;;;;;96.20;28.25;;;-9.40;99.90;;;;;;4172597;28;20298;-78
2024/01/11 05:13:27;;;;;;;72.68;25.58;;;-9.50;99.90;;;;;;4179039;28;21769;-79
2024/01/11 05:15:29;;;;;;;74.07;24.58;;;-9.50;99.90;;;;;;4179014;28;20581;-77
2024/01/11 05:17:31;;;;;;;82.40;27.27;;;-9.50;99.90;;;;;;4183282;28;20226;-78
2024/01/11 05:19:33;;;;;;;81.18;25.38;;;-9.50;99.90;;;;;;4180390;28;20277;-78
2024/01/11 05:21:35;;;;;;;77.05;26.35;;;-9.50;99.90;;;;;;4182650;28;20214;-78
2024/01/11 05:23:36;;;;;;;89.05;26.92;;;-9.50;99.90;;;;;;4164711;28;20329;-78
2024/01/11 05:25:39;;;;;;;96.77;29.20;;;-9.60;99.90;;;;;;4180479;28;20214;-79
2024/01/11 05:27:41;;;;;;;85.65;27.13;;;-9.60;99.90;;;;;;4180226;28;20264;-78
2024/01/11 05:29:43;;;;;;;86.93;28.60;;;-9.50;99.90;;;;;;4178592;28;20214;-79
2024/01/11 05:31:45;;;;;;;96.15;29.67;;;-9.60;99.90;;;;;;4183332;28;20270;-78
2024/01/11 05:33:46;;;;;;;93.38;30.40;;;-9.50;99.90;;;;;;4183388;28;20194;-78
2024/01/11 05:35:48;;;;;;;93.10;29.20;;;-9.50;99.90;;;;;;4172201;28;20246;-79
2024/01/11 05:37:50;;;;;;;81.70;27.55;;;-9.60;99.90;;;;;;4170291;28;20453;-78
2024/01/11 05:39:54;;;;;;;92.90;30.83;;;-9.60;99.90;;;;;;4178433;28;20210;-79
2024/01/11 05:41:57;;;;;;;101.25;29.20;;;-9.60;99.90;;;;;;4170528;28;20221;-79
2024/01/11 05:43:59;;;;;;;85.88;28.52;;;-9.60;99.90;;;;;;4172464;28;20233;-78
2024/01/11 05:46:01;;;;;;;82.05;26.48;;;-9.60;99.90;;;;;;4179973;28;20313;-82
2024/01/11 05:48:03;;;;;;;81.63;27.45;;;-9.60;99.90;;;;;;4178392;28;20202;-78
2024/01/11 05:50:06;;;;;;;91.70;28.40;;;-9.60;99.90;;;;;;4177443;28;20662;-78
2024/01/11 05:52:08;;;;;;;86.45;29.25;;;-9.60;99.90;;;;;;4156175;28;20302;-78
2024/01/11 05:54:10;;;;;;;78.97;26.83;;;-9.60;99.90;;;;;;4160731;28;20218;-77
2024/01/11 05:56:12;;;;;;;95.05;27.33;;;-9.60;99.90;;;;;;4180879;28;20234;-77
2024/01/11 05:58:15;;;;;;;88.35;27.75;;;-9.60;99.90;;;;;;4179949;28;20302;-77
2024/01/11 06:00:22;;;;;;;80.05;26.25;;;-9.60;99.90;;;;;;4170932;28;20211;-78
2024/01/11 06:02:24;;;;;;;97.95;28.35;;;-9.60;99.90;;;;;;4177639;28;20225;-77
2024/01/11 06:04:26;;;;;;;85.18;26.48;;;-9.60;99.90;;;;;;4178292;28;20269;-78
2024/01/11 06:06:28;;;;;;;90.22;27.40;;;-9.60;99.90;;;;;;4179163;28;20222;-78
2024/01/11 06:08:30;;;;;;;75.85;26.23;;;-9.50;99.90;;;;;;4179364;28;20214;-78
2024/01/11 06:10:32;;;;;;;89.32;28.55;;;-9.50;99.90;;;;;;4176359;28;20210;-78
2024/01/11 06:12:34;;;;;;;91.15;27.77;;;-9.50;99.90;;;;;;4177308;28;20670;-82
2024/01/11 06:14:37;;;;;;;87.55;26.33;;;-9.50;99.90;;;;;;4181895;28;20214;-78
2024/01/11 06:16:42;;;;;;;99.07;28.95;;;-9.50;99.90;;;;;;4183905;28;20223;-78
2024/01/11 06:18:44;;;;;;;96.95;30.63;;;-9.50;99.90;;;;;;4182438;28;20202;-77
2024/01/11 06:20:46;;;;;;;97.57;28.63;;;-9.50;99.90;;;;;;4179092;28;20242;-76
2024/01/11 06:22:48;;;;;;;82.18;26.60;;;-9.50;99.90;;;;;;4170679;28;20214;-78
2024/01/11 06:24:49;;;;;;;89.47;28.40;;;-9.50;99.90;;;;;;4179166;28;20214;-78
2024/01/11 06:26:51;;;;;;;84.47;29.50;;;-9.50;99.90;;;;;;4178401;28;20237;-78
2024/01/11 06:28:53;;;;;;;91.85;29.25;;;-9.50;99.90;;;;;;4186163;28;20629;-75
2024/01/11 06:30:56;;;;;;;98.47;28.35;;;-9.40;99.90;;;;;;4181119;28;20213;-78
2024/01/11 06:32:58;;;;;;;87.47;25.92;;;-9.40;99.90;;;;;;4174429;28;20202;-77
2024/01/11 06:35:01;;;;;;;99.40;27.80;;;-9.50;99.90;;;;;;4175092;28;20226;-77
2024/01/11 06:37:03;;;;;;;83.05;26.95;;;-9.40;99.90;;;;;;4180102;28;20236;-77
2024/01/11 06:39:05;;;;;;;86.70;28.52;;;-9.50;99.90;;;;;;4177015;28;20226;-77
2024/01/11 06:41:07;;;;;;;85.63;26.63;;;-9.50;99.90;;;;;;4177478;28;20206;-77
2024/01/11 06:43:09;;;;;;;79.80;26.55;;;-9.50;99.90;;;;;;4175438;28;20207;-78
2024/01/11 06:45:11;;;;;;;89.78;28.88;;;-9.50;99.90;;;;;;4174227;28;20231;-77
2024/01/11 06:47:14;;;;;;;82.50;25.63;;;-9.40;99.90;;;;;;4174747;28;20717;-77
2024/01/11 06:49:16;;;;;;;94.13;28.60;;;-9.40;99.90;;;;;;4173545;28;20207;-77
2024/01/11 06:51:21;;;;;;;86.95;27.08;;;-9.40;99.90;;;;;;4178112;28;20209;-78
2024/01/11 06:53:23;;;;;;;96.53;28.40;;;-9.40;99.90;;;;;;4179230;28;20282;-78
2024/01/11 06:55:25;;;;;;;85.28;27.98;;;-9.10;99.90;;;;;;4174471;28;20721;-78
2024/01/11 06:57:27;;;;;;;98.13;29.30;;;-9.40;99.90;;;;;;4174022;28;20229;-78
2024/01/11 06:59:31;;;;;;;90.78;29.20;;;-9.40;99.90;;;;;;4179797;28;20202;-77
2024/01/11 07:01:33;;;;;;;91.70;26.65;;;-9.40;99.90;;;;;;4181123;28;20206;-77
2024/01/11 07:03:36;;;;;;;93.15;27.52;;;-9.30;99.90;;;;;;4180612;28;20214;-78
2024/01/11 07:05:38;;;;;;;94.43;28.30;;;-9.30;99.90;;;;;;4177449;28;20289;-77
2024/01/11 07:07:40;;;;;;;98.95;32.03;;;-9.30;99.90;;;;;;4184985;28;20206;-77
2024/01/11 07:09:42;;;;;;;92.07;28.38;;;-9.30;99.90;;;;;;4180298;28;20610;-78
2024/01/11 07:11:43;;;;;;;89.38;29.05;;;-9.30;99.90;;;;;;4183013;28;20268;-78
2024/01/11 07:13:45;;;;;;;79.82;27.95;;;-9.30;99.90;;;;;;4181682;28;20590;-78
2024/01/11 07:15:47;;;;;;;93.15;28.58;;;-9.20;99.90;;;;;;4183248;28;20275;-78
2024/01/11 07:17:49;;;;;;;96.18;27.80;;;-9.20;99.90;;;;;;4170446;28;20219;-78
2024/01/11 07:19:53;;;;;;;87.93;28.40;;;-9.20;99.90;;;;;;4181897;28;20843;-78
2024/01/11 07:21:54;;;;;;;96.90;28.05;;;-9.20;99.90;;;;;;4176655;28;20214;-78
2024/01/11 07:23:57;;;;;;;97.80;28.77;;;-9.20;99.90;;;;;;4176645;28;20671;-78
2024/01/11 07:25:59;;;;;;;95.05;29.90;;;-9.10;99.90;;;;;;4163656;28;20235;-78
2024/01/11 07:28:01;;;;;;;96.65;29.92;;;-9.10;99.90;;;;;;4180692;28;20260;-78
2024/01/11 07:30:06;;;;;;;91.45;28.05;;;-9.10;99.90;;;;;;4185061;28;20666;-78
2024/01/11 07:32:08;;;;;;;93.38;27.27;;;-9.10;99.90;;;;;;4179147;28;20214;-78
2024/01/11 07:34:10;;;;;;;88.22;27.10;;;-9.10;99.90;;;;;;4178803;28;20214;-74
2024/01/11 07:36:14;;;;;;;84.35;27.38;;;-9.00;99.90;;;;;;4183417;28;20233;-80
2024/01/11 07:38:16;;;;;;;86.50;27.83;;;-9.00;99.90;;;;;;4183997;28;20273;-80
2024/01/11 07:40:18;;;;;;;85.25;26.02;;;-9.00;99.90;;;;;;4180820;28;20710;-82
2024/01/11 07:42:19;;;;;;;88.15;28.38;;;-9.00;99.90;;;;;;4191429;28;20198;-78
2024/01/11 07:44:21;;;;;;;92.10;29.93;;;-9.00;99.90;;;;;;4183152;28;20283;-80
2024/01/11 07:46:23;;;;;;;88.63;28.88;;;-9.00;99.90;;;;;;4181357;28;20222;-79
2024/01/11 07:48:25;;;;;;;89.13;28.83;;;-9.00;99.90;;;;;;4179387;28;20231;-79
2024/01/11 07:50:27;;;;;;;96.05;29.50;;;-9.00;99.90;;;;;;4177847;28;20207;-80
2024/01/11 07:52:31;;;;;;;87.18;28.90;;;-8.90;99.90;;;;;;4173242;28;20549;-78
2024/01/11 07:54:33;;;;;;;88.78;28.77;;;-9.00;99.90;;;;;;4178144;28;20203;-78
2024/01/11 07:56:35;;;;;;;102.13;29.67;;;-8.90;99.90;;;;;;4187766;28;20222;-78
2024/01/11 07:58:37;;;;;;;97.85;30.73;;;-8.90;99.90;;;;;;4197751;28;20349;-78
2024/01/11 08:00:39;;;;;;;102.90;31.25;;;-8.90;99.90;;;;;;4189638;28;20206;-78
2024/01/11 08:02:41;;;;;;;86.90;28.95;;;-8.90;99.90;;;;;;4165714;28;20229;-78
2024/01/11 08:04:45;;;;;;;96.82;30.00;;;-8.90;99.90;;;;;;4172614;28;20203;-77
2024/01/11 08:06:47;;;;;;;100.53;31.10;;;-8.90;99.90;;;;;;4187951;28;20278;-77
2024/01/11 08:08:52;;;;;;;100.13;32.10;;;-8.90;99.90;;;;;;4176681;28;20621;-78
2024/01/11 08:10:54;;;;;;;102.05;32.42;;;-8.90;99.90;;;;;;4179592;28;20206;-78
2024/01/11 08:12:55;;;;;;;92.85;32.45;;;-8.80;99.90;;;;;;4178925;28;20212;-78
2024/01/11 08:14:57;;;;;;;104.57;32.27;;;-8.80;99.90;;;;;;4182455;28;20543;-77
2024/01/11 08:17:01;;;;;;;95.85;31.23;;;-8.80;99.90;;;;;;4181435;28;20221;-78
2024/01/11 08:19:03;;;;;;;103.40;31.08;;;-8.80;99.90;;;;;;4175350;28;20202;-78
2024/01/11 08:21:06;;;;;;;105.78;32.40;;;-8.80;99.90;;;;;;4159605;28;20755;-78
2024/01/11 08:23:07;;;;;;;93.70;30.33;;;-8.80;99.90;;;;;;4177872;28;20214;-79
2024/01/11 08:25:10;;;;;;;93.07;29.00;;;-8.80;99.90;;;;;;4176486;28;20226;-78
2024/01/11 08:27:13;;;;;;;95.63;30.67;;;-8.70;99.90;;;;;;4181891;28;20202;-78
2024/01/11 08:29:15;;;;;;;91.32;28.58;;;-8.70;99.90;;;;;;4177096;28;20544;-78
2024/01/11 08:31:17;;;;;;;98.53;29.83;;;-8.70;99.90;;;;;;4182126;28;20249;-79
2024/01/11 08:33:18;;;;;;;102.07;30.25;;;-8.50;99.90;;;;;;4182363;28;20261;-78
2024/01/11 08:35:20;;;;;;;97.35;32.00;;;-8.60;99.90;;;;;;4182181;28;20621;-78
2024/01/11 08:37:22;;;;;;;99.97;31.75;;;-8.60;99.90;;;;;;4181861;28;20236;-79
2024/01/11 08:39:24;;;;;;;90.63;30.45;;;-8.60;99.90;;;;;;4177543;28;20588;-78
2024/01/11 08:41:28;;;;;;;93.65;31.20;;;-8.50;99.90;;;;;;4172142;28;20210;-77
2024/01/11 08:43:30;;;;;;;105.10;32.33;;;-8.50;99.90;;;;;;4163929;28;20261;-78
2024/01/11 08:45:32;;;;;;;94.60;32.60;;;-8.40;99.90;;;;;;4175548;28;20293;-78
2024/01/11 08:47:33;;;;;;;108.90;31.65;;;-8.30;99.90;;;;;;4174124;28;20220;-78
2024/01/11 08:49:38;;;;;;;106.55;32.75;;;-8.30;99.90;;;;;;4176992;28;20282;-78
2024/01/11 08:51:40;;;;;;;99.35;30.92;;;-8.30;99.90;;;;;;4173706;28;20290;-78
2024/01/11 08:53:42;;;;;;;116.22;34.28;;;-8.20;99.90;;;;;;4176366;28;20199;-78
2024/01/11 08:55:44;;;;;;;104.65;31.73;;;-8.20;99.90;;;;;;4173368;28;20284;-78
2024/01/11 08:57:47;;;;;;;96.35;32.70;;;-8.20;99.90;;;;;;4174501;28;20752;-78
2024/01/11 08:59:49;;;;;;;103.07;30.10;;;-8.20;99.90;;;;;;4178317;28;20215;-77
2024/01/11 09:01:51;;;;;;;99.15;32.92;;;-8.00;99.90;;;;;;4180986;28;20226;-78
2024/01/11 09:03:53;;;;;;;113.55;36.05;;;-8.10;99.90;;;;;;4175964;28;20216;-77
2024/01/11 09:05:56;;;;;;;101.68;34.35;;;-8.00;99.90;;;;;;4178026;28;20224;-79
2024/01/11 09:07:58;;;;;;;102.85;31.25;;;-8.00;99.90;;;;;;4178117;28;20637;-78
2024/01/11 09:10:00;;;;;;;104.10;31.17;;;-8.00;99.90;;;;;;4175098;28;20230;-78
2024/01/11 09:12:02;;;;;;;100.15;32.30;;;-7.90;99.90;;;;;;4172082;28;20564;-79
2024/01/11 09:14:07;;;;;;;102.53;32.38;;;-7.90;99.90;;;;;;4174016;28;20252;-79
2024/01/11 09:16:09;;;;;;;98.68;32.50;;;-7.90;99.90;;;;;;4183729;28;20282;-79
2024/01/11 09:18:11;;;;;;;111.40;34.50;;;-7.80;99.90;;;;;;4175826;28;20728;-79
2024/01/11 09:20:14;;;;;;;114.72;34.83;;;-7.80;99.90;;;;;;4173524;28;20215;-79
2024/01/11 09:22:16;;;;;;;106.55;34.42;;;-7.70;99.90;;;;;;4160337;28;20318;-75
2024/01/11 09:24:18;;;;;;;103.13;32.67;;;-7.70;99.90;;;;;;4177158;28;20210;-78
2024/01/11 09:26:19;;;;;;;100.13;33.75;;;-7.70;99.90;;;;;;4175671;28;20223;-79
2024/01/11 09:28:21;;;;;;;104.15;33.15;;;-7.60;99.90;;;;;;4174593;28;20270;-79
2024/01/11 09:30:25;;;;;;;96.15;31.63;;;-7.60;99.90;;;;;;4175630;28;20211;-78
2024/01/11 09:32:27;;;;;;;107.38;33.40;;;-7.50;99.90;;;;;;4169128;28;20570;-79
2024/01/11 09:34:29;;;;;;;94.30;32.25;;;-7.50;99.90;;;;;;4170822;28;20201;-79
2024/01/11 09:36:30;;;;;;;106.00;32.10;;;-7.50;99.90;;;;;;4170380;28;20316;-77
2024/01/11 09:38:33;;;;;;;99.03;31.40;;;-7.40;99.90;;;;;;4174667;28;20321;-80
2024/01/11 09:40:35;;;;;;;101.63;32.30;;;-7.40;99.90;;;;;;4177494;28;20208;-80
2024/01/11 09:42:36;;;;;;;93.38;32.75;;;-7.30;99.90;;;;;;4169189;28;20234;-80
2024/01/11 09:44:38;;;;;;;99.70;31.17;;;-7.20;99.90;;;;;;4175324;28;20227;-80
2024/01/11 09:46:41;;;;;;;100.13;32.80;;;-7.20;99.90;;;;;;4181627;28;20248;-80
2024/01/11 09:48:46;;;;;;;102.70;33.80;;;-7.10;99.90;;;;;;4178937;28;20304;-80
2024/01/11 09:50:49;;;;;;;115.45;35.30;;;-7.10;99.90;;;;;;4156132;28;20209;-80
2024/01/11 09:52:51;;;;;;;104.72;33.47;;;-7.00;99.90;;;;;;4179006;28;20758;-79
2024/01/11 09:54:52;;;;;;;109.72;36.08;;;-6.90;99.90;;;;;;4177803;28;20216;-79
2024/01/11 09:56:58;;;;;;;117.07;38.83;;;-6.90;99.90;;;;;;4178712;28;20657;-79
2024/01/11 09:59:00;;;;;;;107.13;37.63;;;-6.80;99.90;;;;;;4176371;28;20213;-80
2024/01/11 10:01:02;;;;;;;105.63;34.40;;;-6.80;99.90;;;;;;4183190;28;20535;-79
2024/01/11 10:03:06;;;;;;;106.72;34.15;;;-6.70;99.90;;;;;;4174287;28;20891;-79
2024/01/11 10:05:07;;;;;;;109.28;33.63;;;-6.70;99.90;;;;;;4175346;28;20270;-79
2024/01/11 10:07:10;;;;;;;98.10;32.05;;;-6.60;99.90;;;;;;4173585;28;20295;-81
2024/01/11 10:09:12;;;;;;;101.43;32.33;;;-6.60;99.90;;;;;;4176819;28;20239;-79
2024/01/11 10:11:14;;;;;;;100.60;33.05;;;-6.30;99.90;;;;;;4184835;28;20208;-82
2024/01/11 10:13:17;;;;;;;102.22;34.72;;;-6.40;99.90;;;;;;4179375;28;20216;-83
2024/01/11 10:15:19;;;;;;;98.32;33.13;;;-6.30;99.90;;;;;;4183270;28;20249;-80
2024/01/11 10:17:21;;;;;;;100.15;32.85;;;-6.30;99.90;;;;;;4179720;28;20271;-79
2024/01/11 10:19:24;;;;;;;97.53;33.75;;;-6.20;99.90;;;;;;4179019;28;20205;-79
2024/01/11 10:21:28;;;;;;;99.00;31.77;;;-6.10;99.90;;;;;;4177995;28;20744;-80